Glencoe, MN

5:55 AM CDT on June 24, 2017 (GMT -0500)
Glencoe Municipal

Weather History for KGYL - September, 2013

Change the Weather History Date:

Monday, September 2, 2013

  Actual Average (KHCD) Record (KHCD)
Temperature  
Mean Temperature 58 °F -  
Max Temperature 66 °F 77 °F 94 °F (1961)
Min Temperature 49 °F 55 °F 42 °F (1998)
Degree Days  
Heating Degree Days 8    
Growing Degree Days 8 (Base 50)    
Moisture  
Dew Point 49 °F    
Average Humidity 75    
Maximum Humidity 89    
Minimum Humidity 55    
Precipitation  
Precipitation 0.00 in - - ()
Sea Level Pressure  
Sea Level Pressure 30.07 in    
Wind  
Wind Speed 4 mph (NNW)    
Max Wind Speed 10 mph    
Max Gust Speed -    
Visibility 10 miles    
Events      
Averages and records for this station are not official NWS values.
T = Trace of Precipitation, MM = Missing Value Source: NWS Daily Summary

Daily Weather History Graph

Daily Weather History Graph

Search for Another Location

Airport or City:

Trip Planner

Search our weather history database for the weather conditions in past years. The results will help you decide how hot, cold, wet, or windy it might be!

Date:

Astronomy

Sep. 02, 2013 Rise Set
Actual Time 6:40 AM CDT 7:50 PM CDT
Civil Twilight 6:10 AM CDT 8:20 PM CDT
Nautical Twilight 5:33 AM CDT 8:56 PM CDT
Astronomical Twilight 4:55 AM CDT 9:34 PM CDT
Moon 3:53 AM CDT (9/2) 6:07 PM CDT (9/2)
Length of Visible Light 14h 10m
Length of Day
13h 10m
Waning Crescent, 8% of the Moon is Illuminated
Sep 2
Waning Crescent
Sep 5
New
Sep 12
First Quarter
Sep 19
Full
Sep 26
Last Quarter

Hourly Weather History & Observations

Time (CDT) Temp. Dew Point Humidity Pressure Visibility Wind Dir Wind Speed Gust Speed Precip Events Conditions
12:14 AM 57.6 °F 52.0 °F 82% 30.01 in 10.0 mi NNW 3.5 mph - N/A   Clear
12:34 AM 57.0 °F 51.3 °F 81% 30.01 in 10.0 mi NW 5.8 mph - N/A   Clear
12:54 AM 56.1 °F 51.4 °F 84% 30.01 in 10.0 mi Calm Calm - N/A   Clear
1:14 AM 55.4 °F 51.1 °F 85% 30.02 in 10.0 mi Calm Calm - N/A   Clear
1:34 AM 54.9 °F 50.0 °F 84% 30.02 in 10.0 mi Calm Calm - N/A   Clear
1:54 AM 54.1 °F 49.5 °F 84% 30.02 in 10.0 mi WNW 3.5 mph - N/A   Clear
2:13 AM 54.1 °F 49.1 °F 83% 30.02 in 10.0 mi NW 4.6 mph - N/A   Clear
2:34 AM 53.1 °F 48.2 °F 84% 30.01 in 10.0 mi WNW 4.6 mph - N/A   Clear
2:54 AM 52.9 °F 48.2 °F 84% 30.02 in 10.0 mi WNW 4.6 mph - N/A   Clear
3:14 AM 52.7 °F 48.0 °F 84% 30.02 in 10.0 mi NW 4.6 mph - N/A   Clear
3:34 AM 52.7 °F 48.0 °F 84% 30.03 in 10.0 mi WNW 4.6 mph - N/A   Clear
3:54 AM 52.0 °F 47.5 °F 85% 30.03 in 10.0 mi WNW 3.5 mph - N/A   Clear
4:13 AM 51.3 °F 46.9 °F 85% 30.03 in 10.0 mi WNW 4.6 mph - N/A   Clear
4:34 AM 51.4 °F 47.3 °F 86% 30.03 in 10.0 mi WNW 4.6 mph - N/A   Clear
4:54 AM 50.7 °F 46.6 °F 86% 30.04 in 10.0 mi WNW 3.5 mph - N/A   Clear
5:13 AM 50.2 °F 46.4 °F 87% 30.04 in 10.0 mi WNW 3.5 mph - N/A   Clear
5:34 AM 49.3 °F 45.5 °F 87% 30.04 in 10.0 mi NW 3.5 mph - N/A   Clear
5:54 AM 49.5 °F 45.9 °F 87% 30.05 in 10.0 mi NW 4.6 mph - N/A   Clear
6:13 AM 49.5 °F 45.9 °F 87% 30.06 in 10.0 mi WNW 4.6 mph - N/A   Clear
6:34 AM 49.6 °F 46.4 °F 89% 30.06 in 10.0 mi NW 4.6 mph - N/A   Clear
6:54 AM 50.0 °F 46.6 °F 88% 30.07 in 10.0 mi NW 4.6 mph - N/A   Scattered Clouds
7:14 AM 50.2 °F 46.8 °F 88% 30.08 in 10.0 mi NW 3.5 mph - N/A   Scattered Clouds
7:33 AM 50.9 °F 47.3 °F 87% 30.08 in 10.0 mi NW 3.5 mph - N/A   Mostly Cloudy
7:54 AM 52.0 °F 48.2 °F 87% 30.08 in 10.0 mi NW 4.6 mph - N/A   Overcast
8:14 AM 53.8 °F 49.5 °F 85% 30.08 in 10.0 mi NW 5.8 mph - N/A   Overcast
8:33 AM 54.9 °F 50.0 °F 84% 30.09 in 10.0 mi NNW 6.9 mph - N/A   Overcast
8:54 AM 55.6 °F 50.5 °F 83% 30.09 in 10.0 mi NNW 5.8 mph - N/A   Overcast
9:14 AM 57.6 °F 51.6 °F 81% 30.09 in 10.0 mi NNW 6.9 mph - N/A   Scattered Clouds
9:34 AM 57.7 °F 51.6 °F 80% 30.10 in 10.0 mi NNW 8.1 mph - N/A   Scattered Clouds
9:54 AM 59.5 °F 52.0 °F 76% 30.10 in 10.0 mi North 9.2 mph - N/A   Mostly Cloudy
10:13 AM 60.1 °F 51.1 °F 72% 30.10 in 10.0 mi NNW 10.4 mph - N/A   Overcast
10:34 AM 60.6 °F 48.7 °F 65% 30.11 in 10.0 mi NNW 6.9 mph - N/A   Overcast
10:54 AM 59.7 °F 49.6 °F 69% 30.11 in 10.0 mi NNW 10.4 mph - N/A   Overcast
11:13 AM 59.9 °F 48.9 °F 67% 30.11 in 10.0 mi NNW 9.2 mph - N/A   Overcast
11:34 AM 59.5 °F 48.9 °F 68% 30.12 in 10.0 mi North 10.4 mph - N/A   Overcast
11:54 AM 59.4 °F 48.9 °F 68% 30.12 in 10.0 mi North 4.6 mph - N/A   Overcast
12:14 PM 59.4 °F 48.9 °F 68% 30.11 in 10.0 mi North 6.9 mph - N/A   Overcast
12:34 PM 60.3 °F 48.7 °F 66% 30.11 in 10.0 mi NNW 8.1 mph - N/A   Overcast
12:54 PM 60.3 °F 48.7 °F 66% 30.11 in 10.0 mi NNW 6.9 mph - N/A   Overcast
1:14 PM 60.6 °F 48.9 °F 65% 30.10 in 10.0 mi North 8.1 mph - N/A   Overcast
1:34 PM 61.3 °F 49.5 °F 65% 30.10 in 10.0 mi NE 4.6 mph - N/A   Overcast
1:53 PM 61.0 °F 49.1 °F 65% 30.10 in 10.0 mi North 4.6 mph - N/A   Overcast
2:14 PM 61.7 °F 49.1 °F 63% 30.09 in 10.0 mi North 4.6 mph - N/A   Overcast
2:34 PM 62.1 °F 49.1 °F 62% 30.09 in 10.0 mi North 4.6 mph - N/A   Overcast
2:54 PM 62.6 °F 49.5 °F 62% 30.09 in 10.0 mi North 3.5 mph - N/A   Overcast
3:14 PM 62.6 °F 49.3 °F 62% 30.09 in 10.0 mi North 6.9 mph - N/A   Overcast
3:34 PM 63.3 °F 49.1 °F 60% 30.08 in 10.0 mi North 4.6 mph - N/A   Overcast
3:53 PM 63.9 °F 50.0 °F 61% 30.07 in 10.0 mi NNW 6.9 mph - N/A   Overcast
4:14 PM 63.7 °F 49.1 °F 59% 30.07 in 10.0 mi North 5.8 mph - N/A   Mostly Cloudy
4:34 PM 64.9 °F 49.6 °F 58% 30.07 in 10.0 mi NW 5.8 mph - N/A   Scattered Clouds
4:53 PM 66.2 °F 49.6 °F 55% 30.06 in 10.0 mi East 5.8 mph - N/A   Scattered Clouds
5:14 PM 65.1 °F 49.1 °F 56% 30.07 in 10.0 mi North 3.5 mph - N/A   Scattered Clouds
5:34 PM 66.2 °F 49.6 °F 55% 30.06 in 10.0 mi North 5.8 mph - N/A   Clear
5:54 PM 65.8 °F 49.5 °F 55% 30.06 in 10.0 mi Calm Calm - N/A   Clear
6:14 PM 65.8 °F 49.3 °F 55% 30.06 in 10.0 mi North 3.5 mph - N/A   Clear
6:34 PM 65.7 °F 49.3 °F 55% 30.06 in 10.0 mi Calm Calm - N/A   Clear
6:54 PM 65.3 °F 49.5 °F 57% 30.06 in 10.0 mi Calm Calm - N/A   Clear
7:14 PM 64.8 °F 50.4 °F 60% 30.05 in 10.0 mi Calm Calm - N/A   Clear
7:34 PM 62.4 °F 51.6 °F 68% 30.05 in 10.0 mi Calm Calm - N/A   Clear
7:54 PM 60.3 °F 51.4 °F 73% 30.05 in 10.0 mi Calm Calm - N/A   Clear
8:14 PM 58.1 °F 51.3 °F 78% 30.04 in 10.0 mi Calm Calm - N/A   Clear
8:34 PM 57.0 °F 50.5 °F 79% 30.05 in 10.0 mi Calm Calm - N/A   Clear
8:53 PM 57.0 °F 50.5 °F 79% 30.06 in 10.0 mi Calm Calm - N/A   Clear
9:14 PM 55.6 °F 49.8 °F 81% 30.06 in 10.0 mi Calm Calm - N/A   Clear
9:34 PM 54.7 °F 49.3 °F 82% 30.06 in 10.0 mi Calm Calm - N/A   Clear
9:54 PM 54.3 °F 48.9 °F 82% 30.07 in 10.0 mi Calm Calm - N/A   Clear
10:14 PM 53.2 °F 47.8 °F 82% 30.07 in 10.0 mi Calm Calm - N/A   Clear
10:34 PM 52.9 °F 47.8 °F 83% 30.07 in 10.0 mi Calm Calm - N/A   Clear
10:54 PM 52.7 °F 47.8 °F 84% 30.07 in 10.0 mi Calm Calm - N/A   Clear
11:14 PM 51.4 °F 47.3 °F 86% 30.07 in 10.0 mi Calm Calm - N/A   Clear
11:33 PM 51.3 °F 47.3 °F 86% 30.07 in 10.0 mi Calm Calm - N/A   Clear
11:54 PM 50.9 °F 46.9 °F 86% 30.07 in 7.0 mi Calm Calm - N/A   Clear